sensor_id;sensor_type;location;lat;lon;timestamp;temperature;humidity
34766;DHT22;20984;43.508;1.504;2023-02-04T00:01:32;1.40;99.90
34766;DHT22;20984;43.508;1.504;2023-02-04T00:03:58;1.30;99.90
34766;DHT22;20984;43.508;1.504;2023-02-04T00:06:24;1.40;99.90
34766;DHT22;20984;43.508;1.504;2023-02-04T00:08:50;1.50;99.90
34766;DHT22;20984;43.508;1.504;2023-02-04T00:11:16;1.50;99.90
34766;DHT22;20984;43.508;1.504;2023-02-04T00:13:41;1.40;99.90
34766;DHT22;20984;43.508;1.504;2023-02-04T00:16:07;1.30;99.90
34766;DHT22;20984;43.508;1.504;2023-02-04T00:18:33;1.20;99.90
34766;DHT22;20984;43.508;1.504;2023-02-04T00:20:59;1.20;99.90
34766;DHT22;20984;43.508;1.504;2023-02-04T00:23:24;1.20;99.90
34766;DHT22;20984;43.508;1.504;2023-02-04T00:25:50;1.10;99.90
34766;DHT22;20984;43.508;1.504;2023-02-04T00:28:15;1.20;99.90
34766;DHT22;20984;43.508;1.504;2023-02-04T00:30:41;1.10;99.90
34766;DHT22;20984;43.508;1.504;2023-02-04T00:33:07;1.10;99.90
34766;DHT22;20984;43.508;1.504;2023-02-04T00:35:32;1.00;99.90
34766;DHT22;20984;43.508;1.504;2023-02-04T00:37:58;1.00;99.90
34766;DHT22;20984;43.508;1.504;2023-02-04T00:40:24;0.90;99.90
34766;DHT22;20984;43.508;1.504;2023-02-04T00:42:50;0.80;99.90
34766;DHT22;20984;43.508;1.504;2023-02-04T00:45:15;0.80;99.90
34766;DHT22;20984;43.508;1.504;2023-02-04T00:47:41;0.80;99.90
34766;DHT22;20984;43.508;1.504;2023-02-04T00:50:07;0.80;99.90
34766;DHT22;20984;43.508;1.504;2023-02-04T00:52:33;0.80;99.90
34766;DHT22;20984;43.508;1.504;2023-02-04T00:54:58;0.80;99.90
34766;DHT22;20984;43.508;1.504;2023-02-04T00:57:24;0.80;99.90
34766;DHT22;20984;43.508;1.504;2023-02-04T00:59:49;0.90;99.90
34766;DHT22;20984;43.508;1.504;2023-02-04T01:02:15;1.00;99.90
34766;DHT22;20984;43.508;1.504;2023-02-04T01:04:41;1.00;99.90
34766;DHT22;20984;43.508;1.504;2023-02-04T01:07:06;1.10;99.90
34766;DHT22;20984;43.508;1.504;2023-02-04T01:09:33;1.10;99.90
34766;DHT22;20984;43.508;1.504;2023-02-04T01:11:58;1.20;99.90
34766;DHT22;20984;43.508;1.504;2023-02-04T01:14:24;1.20;99.90
34766;DHT22;20984;43.508;1.504;2023-02-04T01:16:50;1.20;99.90
34766;DHT22;20984;43.508;1.504;2023-02-04T01:19:15;1.20;99.90
34766;DHT22;20984;43.508;1.504;2023-02-04T01:21:41;1.30;99.90
34766;DHT22;20984;43.508;1.504;2023-02-04T01:24:07;1.60;99.90
34766;DHT22;20984;43.508;1.504;2023-02-04T01:26:33;1.90;99.90
34766;DHT22;20984;43.508;1.504;2023-02-04T01:28:58;2.10;99.90
34766;DHT22;20984;43.508;1.504;2023-02-04T01:31:24;2.20;99.90
34766;DHT22;20984;43.508;1.504;2023-02-04T01:33:50;2.30;99.90
34766;DHT22;20984;43.508;1.504;2023-02-04T01:36:17;2.40;99.90
34766;DHT22;20984;43.508;1.504;2023-02-04T01:38:47;2.30;99.90
34766;DHT22;20984;43.508;1.504;2023-02-04T01:41:13;2.40;99.90
34766;DHT22;20984;43.508;1.504;2023-02-04T01:43:39;2.40;99.90
34766;DHT22;20984;43.508;1.504;2023-02-04T01:46:05;2.40;99.90
34766;DHT22;20984;43.508;1.504;2023-02-04T01:48:31;2.40;99.90
34766;DHT22;20984;43.508;1.504;2023-02-04T01:51:18;2.50;99.90
34766;DHT22;20984;43.508;1.504;2023-02-04T01:53:46;2.50;99.90
34766;DHT22;20984;43.508;1.504;2023-02-04T01:56:19;2.50;99.90
34766;DHT22;20984;43.508;1.504;2023-02-04T01:58:46;2.50;99.90
34766;DHT22;20984;43.508;1.504;2023-02-04T02:01:14;2.50;99.90
34766;DHT22;20984;43.508;1.504;2023-02-04T02:03:40;2.50;99.90
34766;DHT22;20984;43.508;1.504;2023-02-04T02:06:07;2.50;99.90
34766;DHT22;20984;43.508;1.504;2023-02-04T02:08:35;2.50;99.90
34766;DHT22;20984;43.508;1.504;2023-02-04T02:11:01;2.60;99.90
34766;DHT22;20984;43.508;1.504;2023-02-04T02:13:27;2.60;99.90
34766;DHT22;20984;43.508;1.504;2023-02-04T02:15:53;2.60;99.90
34766;DHT22;20984;43.508;1.504;2023-02-04T02:18:19;2.60;99.90
34766;DHT22;20984;43.508;1.504;2023-02-04T02:20:45;2.60;99.90
34766;DHT22;20984;43.508;1.504;2023-02-04T02:25:43;2.60;99.90
34766;DHT22;20984;43.508;1.504;2023-02-04T02:28:12;2.60;99.90
34766;DHT22;20984;43.508;1.504;2023-02-04T02:30:41;2.60;99.90
34766;DHT22;20984;43.508;1.504;2023-02-04T02:33:10;2.60;99.90
34766;DHT22;20984;43.508;1.504;2023-02-04T02:35:36;2.70;99.90
34766;DHT22;20984;43.508;1.504;2023-02-04T02:38:02;2.60;99.90
34766;DHT22;20984;43.508;1.504;2023-02-04T02:40:28;2.60;99.90
34766;DHT22;20984;43.508;1.504;2023-02-04T02:42:53;2.60;99.90
34766;DHT22;20984;43.508;1.504;2023-02-04T02:45:26;2.60;99.90
34766;DHT22;20984;43.508;1.504;2023-02-04T02:47:53;2.50;99.90
34766;DHT22;20984;43.508;1.504;2023-02-04T02:50:24;2.50;99.90
34766;DHT22;20984;43.508;1.504;2023-02-04T02:52:51;2.60;99.90
34766;DHT22;20984;43.508;1.504;2023-02-04T02:55:19;2.50;99.90
34766;DHT22;20984;43.508;1.504;2023-02-04T02:57:47;2.50;99.90
34766;DHT22;20984;43.508;1.504;2023-02-04T03:02:58;2.50;99.90
34766;DHT22;20984;43.508;1.504;2023-02-04T03:05:26;2.50;99.90
34766;DHT22;20984;43.508;1.504;2023-02-04T03:07:53;2.40;99.90
34766;DHT22;20984;43.508;1.504;2023-02-04T03:10:19;2.30;99.90
34766;DHT22;20984;43.508;1.504;2023-02-04T03:12:45;2.30;99.90
34766;DHT22;20984;43.508;1.504;2023-02-04T03:15:11;2.30;99.90
34766;DHT22;20984;43.508;1.504;2023-02-04T03:17:38;2.30;99.90
34766;DHT22;20984;43.508;1.504;2023-02-04T03:20:05;2.20;99.90
34766;DHT22;20984;43.508;1.504;2023-02-04T03:22:31;2.30;99.90
34766;DHT22;20984;43.508;1.504;2023-02-04T03:24:56;2.30;99.90
34766;DHT22;20984;43.508;1.504;2023-02-04T03:27:23;2.30;99.90
34766;DHT22;20984;43.508;1.504;2023-02-04T03:29:49;2.30;99.90
34766;DHT22;20984;43.508;1.504;2023-02-04T03:32:15;2.40;99.90
34766;DHT22;20984;43.508;1.504;2023-02-04T03:34:40;2.40;99.90
34766;DHT22;20984;43.508;1.504;2023-02-04T03:37:06;2.40;99.90
34766;DHT22;20984;43.508;1.504;2023-02-04T03:39:32;2.40;99.90
34766;DHT22;20984;43.508;1.504;2023-02-04T03:41:58;2.30;99.90
34766;DHT22;20984;43.508;1.504;2023-02-04T03:44:23;2.30;99.90
34766;DHT22;20984;43.508;1.504;2023-02-04T03:46:52;2.40;99.90
34766;DHT22;20984;43.508;1.504;2023-02-04T03:49:20;2.40;99.90
34766;DHT22;20984;43.508;1.504;2023-02-04T03:51:46;2.40;99.90
34766;DHT22;20984;43.508;1.504;2023-02-04T03:54:12;2.40;99.90
34766;DHT22;20984;43.508;1.504;2023-02-04T03:56:38;2.30;99.90
34766;DHT22;20984;43.508;1.504;2023-02-04T03:59:03;2.40;99.90
34766;DHT22;20984;43.508;1.504;2023-02-04T04:01:29;2.40;99.90
34766;DHT22;20984;43.508;1.504;2023-02-04T04:03:55;2.30;99.90
34766;DHT22;20984;43.508;1.504;2023-02-04T04:06:20;2.30;99.90
34766;DHT22;20984;43.508;1.504;2023-02-04T04:08:46;2.30;99.90
34766;DHT22;20984;43.508;1.504;2023-02-04T04:11:12;2.20;99.90
34766;DHT22;20984;43.508;1.504;2023-02-04T04:13:37;2.10;99.90
34766;DHT22;20984;43.508;1.504;2023-02-04T04:16:03;2.00;99.90
34766;DHT22;20984;43.508;1.504;2023-02-04T04:18:30;1.90;99.90
34766;DHT22;20984;43.508;1.504;2023-02-04T04:20:57;1.80;99.90
34766;DHT22;20984;43.508;1.504;2023-02-04T04:23:23;1.60;99.90
34766;DHT22;20984;43.508;1.504;2023-02-04T04:25:49;1.40;99.90
34766;DHT22;20984;43.508;1.504;2023-02-04T04:28:15;1.50;99.90
34766;DHT22;20984;43.508;1.504;2023-02-04T04:30:41;1.50;99.90
34766;DHT22;20984;43.508;1.504;2023-02-04T04:33:07;1.60;99.90
34766;DHT22;20984;43.508;1.504;2023-02-04T04:35:33;1.80;99.90
34766;DHT22;20984;43.508;1.504;2023-02-04T04:38:00;1.90;99.90
34766;DHT22;20984;43.508;1.504;2023-02-04T04:40:26;2.00;99.90
34766;DHT22;20984;43.508;1.504;2023-02-04T04:42:51;2.00;99.90
34766;DHT22;20984;43.508;1.504;2023-02-04T04:45:17;2.00;99.90
34766;DHT22;20984;43.508;1.504;2023-02-04T04:47:44;2.10;99.90
34766;DHT22;20984;43.508;1.504;2023-02-04T04:50:10;2.10;99.90
34766;DHT22;20984;43.508;1.504;2023-02-04T04:52:36;2.00;99.90
34766;DHT22;20984;43.508;1.504;2023-02-04T04:55:02;2.00;99.90
34766;DHT22;20984;43.508;1.504;2023-02-04T04:57:28;2.00;99.90
34766;DHT22;20984;43.508;1.504;2023-02-04T04:59:53;2.00;99.90
34766;DHT22;20984;43.508;1.504;2023-02-04T05:02:19;1.90;99.90
34766;DHT22;20984;43.508;1.504;2023-02-04T05:04:45;1.90;99.90
34766;DHT22;20984;43.508;1.504;2023-02-04T05:07:11;1.80;99.90
34766;DHT22;20984;43.508;1.504;2023-02-04T05:09:36;1.70;99.90
34766;DHT22;20984;43.508;1.504;2023-02-04T05:12:02;1.50;99.90
34766;DHT22;20984;43.508;1.504;2023-02-04T05:14:28;1.30;99.90
34766;DHT22;20984;43.508;1.504;2023-02-04T05:16:54;1.20;99.90
34766;DHT22;20984;43.508;1.504;2023-02-04T05:19:19;1.00;99.90
34766;DHT22;20984;43.508;1.504;2023-02-04T05:21:45;0.90;99.90
34766;DHT22;20984;43.508;1.504;2023-02-04T05:24:11;0.80;99.90
34766;DHT22;20984;43.508;1.504;2023-02-04T05:26:36;0.70;99.90
34766;DHT22;20984;43.508;1.504;2023-02-04T05:29:02;0.70;99.90
34766;DHT22;20984;43.508;1.504;2023-02-04T05:31:28;0.80;99.90
34766;DHT22;20984;43.508;1.504;2023-02-04T05:33:53;0.80;99.90
34766;DHT22;20984;43.508;1.504;2023-02-04T05:36:20;0.90;99.90
34766;DHT22;20984;43.508;1.504;2023-02-04T05:38:46;0.90;99.90
34766;DHT22;20984;43.508;1.504;2023-02-04T05:41:11;0.90;99.90
34766;DHT22;20984;43.508;1.504;2023-02-04T05:43:38;0.80;99.90
34766;DHT22;20984;43.508;1.504;2023-02-04T05:46:04;0.70;99.90
34766;DHT22;20984;43.508;1.504;2023-02-04T05:48:30;0.60;99.90
34766;DHT22;20984;43.508;1.504;2023-02-04T05:50:56;0.50;99.90
34766;DHT22;20984;43.508;1.504;2023-02-04T05:53:22;0.50;99.90
34766;DHT22;20984;43.508;1.504;2023-02-04T05:55:47;0.50;99.90
34766;DHT22;20984;43.508;1.504;2023-02-04T05:58:13;0.40;99.90
34766;DHT22;20984;43.508;1.504;2023-02-04T06:00:39;0.20;99.90
34766;DHT22;20984;43.508;1.504;2023-02-04T06:03:05;0.20;99.90
34766;DHT22;20984;43.508;1.504;2023-02-04T06:05:31;0.20;99.90
34766;DHT22;20984;43.508;1.504;2023-02-04T06:07:57;0.10;99.90
34766;DHT22;20984;43.508;1.504;2023-02-04T06:10:23;0.10;99.90
34766;DHT22;20984;43.508;1.504;2023-02-04T06:12:49;0.10;99.90
34766;DHT22;20984;43.508;1.504;2023-02-04T06:15:14;0.00;99.90
34766;DHT22;20984;43.508;1.504;2023-02-04T06:17:40;0.00;99.90
34766;DHT22;20984;43.508;1.504;2023-02-04T06:20:07;-0.10;99.90
34766;DHT22;20984;43.508;1.504;2023-02-04T06:22:33;-0.10;99.90
34766;DHT22;20984;43.508;1.504;2023-02-04T06:24:59;-0.30;99.90
34766;DHT22;20984;43.508;1.504;2023-02-04T06:27:24;-0.30;99.90
34766;DHT22;20984;43.508;1.504;2023-02-04T06:29:54;-0.30;99.90
34766;DHT22;20984;43.508;1.504;2023-02-04T06:32:20;-0.40;99.90
34766;DHT22;20984;43.508;1.504;2023-02-04T06:34:45;-0.40;99.90
34766;DHT22;20984;43.508;1.504;2023-02-04T06:37:11;-0.40;99.90
34766;DHT22;20984;43.508;1.504;2023-02-04T06:39:38;-0.40;99.90
34766;DHT22;20984;43.508;1.504;2023-02-04T06:42:04;-0.50;99.90
34766;DHT22;20984;43.508;1.504;2023-02-04T06:44:30;-0.50;99.90
34766;DHT22;20984;43.508;1.504;2023-02-04T06:46:55;-0.50;99.90
34766;DHT22;20984;43.508;1.504;2023-02-04T06:49:21;-0.50;99.90
34766;DHT22;20984;43.508;1.504;2023-02-04T06:51:49;-0.50;99.90
34766;DHT22;20984;43.508;1.504;2023-02-04T06:54:15;-0.60;99.90
34766;DHT22;20984;43.508;1.504;2023-02-04T06:56:41;-0.60;99.90
34766;DHT22;20984;43.508;1.504;2023-02-04T06:59:08;-0.70;99.90
34766;DHT22;20984;43.508;1.504;2023-02-04T07:01:34;-0.70;99.90
34766;DHT22;20984;43.508;1.504;2023-02-04T07:04:00;-0.60;99.90
34766;DHT22;20984;43.508;1.504;2023-02-04T07:06:25;-0.60;99.90
34766;DHT22;20984;43.508;1.504;2023-02-04T07:08:51;-0.70;99.90
34766;DHT22;20984;43.508;1.504;2023-02-04T07:11:17;-0.70;99.90
34766;DHT22;20984;43.508;1.504;2023-02-04T07:13:42;-0.70;99.90
34766;DHT22;20984;43.508;1.504;2023-02-04T07:16:08;-0.60;99.90
34766;DHT22;20984;43.508;1.504;2023-02-04T07:18:34;-0.30;99.90
34766;DHT22;20984;43.508;1.504;2023-02-04T07:20:59;-0.10;99.90
34766;DHT22;20984;43.508;1.504;2023-02-04T07:23:25;0.10;99.90
34766;DHT22;20984;43.508;1.504;2023-02-04T07:25:52;0.30;99.90
34766;DHT22;20984;43.508;1.504;2023-02-04T07:28:18;0.30;99.90
34766;DHT22;20984;43.508;1.504;2023-02-04T07:30:44;0.20;99.90
34766;DHT22;20984;43.508;1.504;2023-02-04T07:33:10;0.10;99.90
34766;DHT22;20984;43.508;1.504;2023-02-04T07:35:36;0.10;99.90
34766;DHT22;20984;43.508;1.504;2023-02-04T07:38:05;0.20;99.90
34766;DHT22;20984;43.508;1.504;2023-02-04T07:40:31;0.30;99.90
34766;DHT22;20984;43.508;1.504;2023-02-04T07:42:56;0.40;99.90
34766;DHT22;20984;43.508;1.504;2023-02-04T07:45:22;0.50;99.90
34766;DHT22;20984;43.508;1.504;2023-02-04T07:47:48;0.60;99.90
34766;DHT22;20984;43.508;1.504;2023-02-04T07:50:14;0.80;99.90
34766;DHT22;20984;43.508;1.504;2023-02-04T07:52:40;1.00;99.90
34766;DHT22;20984;43.508;1.504;2023-02-04T07:55:07;1.10;99.90
34766;DHT22;20984;43.508;1.504;2023-02-04T07:57:33;1.30;99.90
34766;DHT22;20984;43.508;1.504;2023-02-04T07:59:58;1.40;99.90
34766;DHT22;20984;43.508;1.504;2023-02-04T08:02:25;1.50;99.90
34766;DHT22;20984;43.508;1.504;2023-02-04T08:04:51;1.50;99.90
34766;DHT22;20984;43.508;1.504;2023-02-04T08:07:16;1.40;99.90
34766;DHT22;20984;43.508;1.504;2023-02-04T08:09:42;1.30;99.90
34766;DHT22;20984;43.508;1.504;2023-02-04T08:12:08;1.20;99.90
34766;DHT22;20984;43.508;1.504;2023-02-04T08:14:33;1.20;99.90
34766;DHT22;20984;43.508;1.504;2023-02-04T08:16:59;1.40;99.90
34766;DHT22;20984;43.508;1.504;2023-02-04T08:19:25;1.40;99.90
34766;DHT22;20984;43.508;1.504;2023-02-04T08:21:50;1.40;99.90
34766;DHT22;20984;43.508;1.504;2023-02-04T08:24:16;1.30;99.90
34766;DHT22;20984;43.508;1.504;2023-02-04T08:26:43;1.30;99.90
34766;DHT22;20984;43.508;1.504;2023-02-04T08:29:09;1.30;99.90
34766;DHT22;20984;43.508;1.504;2023-02-04T08:31:35;1.40;99.90
34766;DHT22;20984;43.508;1.504;2023-02-04T08:34:02;1.40;99.90
34766;DHT22;20984;43.508;1.504;2023-02-04T08:36:29;1.50;99.90
34766;DHT22;20984;43.508;1.504;2023-02-04T08:38:55;1.70;99.90
34766;DHT22;20984;43.508;1.504;2023-02-04T08:41:20;1.90;99.90
34766;DHT22;20984;43.508;1.504;2023-02-04T08:43:46;2.30;99.90
34766;DHT22;20984;43.508;1.504;2023-02-04T08:46:12;2.50;99.90
34766;DHT22;20984;43.508;1.504;2023-02-04T08:48:37;2.70;99.90
34766;DHT22;20984;43.508;1.504;2023-02-04T08:51:03;2.80;99.90
34766;DHT22;20984;43.508;1.504;2023-02-04T08:53:29;3.00;99.90
34766;DHT22;20984;43.508;1.504;2023-02-04T08:55:55;3.10;99.90
34766;DHT22;20984;43.508;1.504;2023-02-04T08:58:20;3.20;99.90
34766;DHT22;20984;43.508;1.504;2023-02-04T09:00:46;3.30;99.90
34766;DHT22;20984;43.508;1.504;2023-02-04T09:03:11;3.40;99.90
34766;DHT22;20984;43.508;1.504;2023-02-04T09:05:37;3.40;99.90
34766;DHT22;20984;43.508;1.504;2023-02-04T09:08:03;3.50;99.90
34766;DHT22;20984;43.508;1.504;2023-02-04T09:10:29;3.60;99.90
34766;DHT22;20984;43.508;1.504;2023-02-04T09:12:54;3.70;99.90
34766;DHT22;20984;43.508;1.504;2023-02-04T09:15:22;3.80;99.90
34766;DHT22;20984;43.508;1.504;2023-02-04T09:17:51;3.90;99.90
34766;DHT22;20984;43.508;1.504;2023-02-04T09:20:29;3.90;99.90
34766;DHT22;20984;43.508;1.504;2023-02-04T09:22:54;4.00;99.90
34766;DHT22;20984;43.508;1.504;2023-02-04T09:25:20;4.00;99.90
34766;DHT22;20984;43.508;1.504;2023-02-04T09:27:46;4.10;99.90
34766;DHT22;20984;43.508;1.504;2023-02-04T09:30:12;4.10;99.90
34766;DHT22;20984;43.508;1.504;2023-02-04T09:32:37;4.10;99.90
34766;DHT22;20984;43.508;1.504;2023-02-04T09:35:03;4.20;99.90
34766;DHT22;20984;43.508;1.504;2023-02-04T09:37:29;4.30;99.90
34766;DHT22;20984;43.508;1.504;2023-02-04T09:39:55;4.30;99.90
34766;DHT22;20984;43.508;1.504;2023-02-04T09:42:24;4.40;99.90
34766;DHT22;20984;43.508;1.504;2023-02-04T09:44:50;4.50;99.90
34766;DHT22;20984;43.508;1.504;2023-02-04T09:47:17;4.60;99.90
34766;DHT22;20984;43.508;1.504;2023-02-04T09:49:44;4.60;99.90
34766;DHT22;20984;43.508;1.504;2023-02-04T09:52:14;4.70;99.90
34766;DHT22;20984;43.508;1.504;2023-02-04T09:54:41;4.80;99.90
34766;DHT22;20984;43.508;1.504;2023-02-04T09:57:17;4.80;99.90
34766;DHT22;20984;43.508;1.504;2023-02-04T09:59:44;4.90;99.90
34766;DHT22;20984;43.508;1.504;2023-02-04T10:02:22;4.90;99.90
34766;DHT22;20984;43.508;1.504;2023-02-04T10:04:50;5.00;99.90
34766;DHT22;20984;43.508;1.504;2023-02-04T10:07:18;5.10;99.90
34766;DHT22;20984;43.508;1.504;2023-02-04T10:09:47;5.10;99.90
34766;DHT22;20984;43.508;1.504;2023-02-04T10:12:13;5.20;99.90
34766;DHT22;20984;43.508;1.504;2023-02-04T10:14:39;5.20;99.90
34766;DHT22;20984;43.508;1.504;2023-02-04T10:17:06;5.20;99.90
34766;DHT22;20984;43.508;1.504;2023-02-04T10:19:33;5.30;99.90
34766;DHT22;20984;43.508;1.504;2023-02-04T10:21:59;5.30;99.90
34766;DHT22;20984;43.508;1.504;2023-02-04T10:24:25;5.40;99.90
34766;DHT22;20984;43.508;1.504;2023-02-04T10:26:52;5.50;99.90
34766;DHT22;20984;43.508;1.504;2023-02-04T10:29:21;5.60;99.90
34766;DHT22;20984;43.508;1.504;2023-02-04T10:31:49;5.70;99.90
34766;DHT22;20984;43.508;1.504;2023-02-04T10:34:19;5.70;99.90
34766;DHT22;20984;43.508;1.504;2023-02-04T10:36:53;5.80;99.90
34766;DHT22;20984;43.508;1.504;2023-02-04T10:39:28;5.90;99.90
34766;DHT22;20984;43.508;1.504;2023-02-04T10:41:56;6.10;99.90
34766;DHT22;20984;43.508;1.504;2023-02-04T10:44:33;6.10;99.90
34766;DHT22;20984;43.508;1.504;2023-02-04T10:47:23;6.20;99.90
34766;DHT22;20984;43.508;1.504;2023-02-04T10:50:18;6.30;99.90
34766;DHT22;20984;43.508;1.504;2023-02-04T10:52:58;6.40;99.90
34766;DHT22;20984;43.508;1.504;2023-02-04T10:55:44;6.50;99.90
34766;DHT22;20984;43.508;1.504;2023-02-04T10:58:17;6.60;99.90
34766;DHT22;20984;43.508;1.504;2023-02-04T11:00:44;6.70;99.90
34766;DHT22;20984;43.508;1.504;2023-02-04T11:03:23;6.80;99.90
34766;DHT22;20984;43.508;1.504;2023-02-04T11:05:50;6.90;99.90
34766;DHT22;20984;43.508;1.504;2023-02-04T11:08:24;6.90;99.90
34766;DHT22;20984;43.508;1.504;2023-02-04T11:11:04;7.00;99.90
34766;DHT22;20984;43.508;1.504;2023-02-04T11:16:28;7.10;99.90
34766;DHT22;20984;43.508;1.504;2023-02-04T11:18:59;7.10;99.90
34766;DHT22;20984;43.508;1.504;2023-02-04T11:27:04;7.20;99.90
34766;DHT22;20984;43.508;1.504;2023-02-04T11:29:34;7.30;99.90
34766;DHT22;20984;43.508;1.504;2023-02-04T11:34:47;7.40;99.90
34766;DHT22;20984;43.508;1.504;2023-02-04T11:37:17;7.50;99.90
34766;DHT22;20984;43.508;1.504;2023-02-04T11:39:47;7.50;99.90
34766;DHT22;20984;43.508;1.504;2023-02-04T11:42:29;7.50;99.90
34766;DHT22;20984;43.508;1.504;2023-02-04T11:45:00;7.50;99.90
34766;DHT22;20984;43.508;1.504;2023-02-04T11:47:33;7.40;99.90
34766;DHT22;20984;43.508;1.504;2023-02-04T11:50:03;7.50;99.90
34766;DHT22;20984;43.508;1.504;2023-02-04T11:52:29;7.50;99.90
34766;DHT22;20984;43.508;1.504;2023-02-04T11:54:57;7.60;99.90
34766;DHT22;20984;43.508;1.504;2023-02-04T11:57:24;7.60;99.90
34766;DHT22;20984;43.508;1.504;2023-02-04T11:59:50;7.60;99.90
34766;DHT22;20984;43.508;1.504;2023-02-04T12:02:18;7.60;99.90
34766;DHT22;20984;43.508;1.504;2023-02-04T12:05:07;7.70;99.90
34766;DHT22;20984;43.508;1.504;2023-02-04T12:07:33;7.70;99.90
34766;DHT22;20984;43.508;1.504;2023-02-04T12:10:10;7.80;99.90
34766;DHT22;20984;43.508;1.504;2023-02-04T12:12:47;7.80;99.90
34766;DHT22;20984;43.508;1.504;2023-02-04T12:15:17;7.80;99.90
34766;DHT22;20984;43.508;1.504;2023-02-04T12:17:45;7.80;99.90
34766;DHT22;20984;43.508;1.504;2023-02-04T12:20:14;7.90;99.90
34766;DHT22;20984;43.508;1.504;2023-02-04T12:22:39;7.90;99.90
34766;DHT22;20984;43.508;1.504;2023-02-04T12:25:05;8.10;99.90
34766;DHT22;20984;43.508;1.504;2023-02-04T12:27:31;8.10;99.90
34766;DHT22;20984;43.508;1.504;2023-02-04T12:29:57;8.10;99.90
34766;DHT22;20984;43.508;1.504;2023-02-04T12:32:22;8.20;99.90
34766;DHT22;20984;43.508;1.504;2023-02-04T12:34:48;8.30;99.90
34766;DHT22;20984;43.508;1.504;2023-02-04T12:37:14;8.40;99.90
34766;DHT22;20984;43.508;1.504;2023-02-04T12:39:39;8.40;99.90
34766;DHT22;20984;43.508;1.504;2023-02-04T12:42:05;8.50;99.90
34766;DHT22;20984;43.508;1.504;2023-02-04T12:44:31;8.50;99.90
34766;DHT22;20984;43.508;1.504;2023-02-04T12:46:56;8.50;99.90
34766;DHT22;20984;43.508;1.504;2023-02-04T12:49:22;8.60;99.90
34766;DHT22;20984;43.508;1.504;2023-02-04T12:51:49;8.70;99.90
34766;DHT22;20984;43.508;1.504;2023-02-04T12:54:16;8.70;99.90
34766;DHT22;20984;43.508;1.504;2023-02-04T12:56:42;8.70;99.90
34766;DHT22;20984;43.508;1.504;2023-02-04T12:59:07;8.70;99.90
34766;DHT22;20984;43.508;1.504;2023-02-04T13:01:33;8.80;99.90
34766;DHT22;20984;43.508;1.504;2023-02-04T13:03:59;8.90;99.90
34766;DHT22;20984;43.508;1.504;2023-02-04T13:06:24;8.90;99.90
34766;DHT22;20984;43.508;1.504;2023-02-04T13:08:50;9.00;99.90
34766;DHT22;20984;43.508;1.504;2023-02-04T13:11:15;9.00;99.90
34766;DHT22;20984;43.508;1.504;2023-02-04T13:13:41;9.00;99.90
34766;DHT22;20984;43.508;1.504;2023-02-04T13:16:07;9.00;99.90
34766;DHT22;20984;43.508;1.504;2023-02-04T13:18:32;9.00;99.90
34766;DHT22;20984;43.508;1.504;2023-02-04T13:20:58;9.10;99.90
34766;DHT22;20984;43.508;1.504;2023-02-04T13:23:24;9.10;99.90
34766;DHT22;20984;43.508;1.504;2023-02-04T13:25:49;9.20;99.90
34766;DHT22;20984;43.508;1.504;2023-02-04T13:28:15;9.20;99.90
34766;DHT22;20984;43.508;1.504;2023-02-04T13:30:41;9.20;99.90
34766;DHT22;20984;43.508;1.504;2023-02-04T13:33:06;9.20;99.90
34766;DHT22;20984;43.508;1.504;2023-02-04T13:35:32;9.20;99.90
34766;DHT22;20984;43.508;1.504;2023-02-04T13:37:58;9.30;99.90
34766;DHT22;20984;43.508;1.504;2023-02-04T13:40:23;9.30;99.90
34766;DHT22;20984;43.508;1.504;2023-02-04T13:42:49;9.40;99.90
34766;DHT22;20984;43.508;1.504;2023-02-04T13:45:15;9.40;99.90
34766;DHT22;20984;43.508;1.504;2023-02-04T13:47:43;9.50;99.90
34766;DHT22;20984;43.508;1.504;2023-02-04T13:50:09;9.50;99.90
34766;DHT22;20984;43.508;1.504;2023-02-04T13:52:34;9.50;99.90
34766;DHT22;20984;43.508;1.504;2023-02-04T13:55:00;9.50;99.90
34766;DHT22;20984;43.508;1.504;2023-02-04T13:57:26;9.50;99.90
34766;DHT22;20984;43.508;1.504;2023-02-04T13:59:51;9.50;99.90
34766;DHT22;20984;43.508;1.504;2023-02-04T14:02:17;9.60;99.90
34766;DHT22;20984;43.508;1.504;2023-02-04T14:04:44;9.70;99.90
34766;DHT22;20984;43.508;1.504;2023-02-04T14:07:10;9.70;99.90
34766;DHT22;20984;43.508;1.504;2023-02-04T14:09:35;9.70;99.90
34766;DHT22;20984;43.508;1.504;2023-02-04T14:12:01;9.70;99.90
34766;DHT22;20984;43.508;1.504;2023-02-04T14:14:27;9.80;99.90
34766;DHT22;20984;43.508;1.504;2023-02-04T14:16:53;9.70;99.90
34766;DHT22;20984;43.508;1.504;2023-02-04T14:19:19;9.80;99.90
34766;DHT22;20984;43.508;1.504;2023-02-04T14:21:44;9.80;99.90
34766;DHT22;20984;43.508;1.504;2023-02-04T14:24:10;9.80;99.90
34766;DHT22;20984;43.508;1.504;2023-02-04T14:26:36;9.80;99.90
34766;DHT22;20984;43.508;1.504;2023-02-04T14:29:02;9.80;99.90
34766;DHT22;20984;43.508;1.504;2023-02-04T14:31:29;9.90;99.90
34766;DHT22;20984;43.508;1.504;2023-02-04T14:33:54;9.90;99.90
34766;DHT22;20984;43.508;1.504;2023-02-04T14:36:20;9.90;99.90
34766;DHT22;20984;43.508;1.504;2023-02-04T14:38:46;9.80;99.90
34766;DHT22;20984;43.508;1.504;2023-02-04T14:41:12;9.80;99.90
34766;DHT22;20984;43.508;1.504;2023-02-04T14:43:40;9.80;99.90
34766;DHT22;20984;43.508;1.504;2023-02-04T14:46:06;9.80;99.90
34766;DHT22;20984;43.508;1.504;2023-02-04T14:48:32;9.80;99.90
34766;DHT22;20984;43.508;1.504;2023-02-04T14:50:58;9.80;99.90
34766;DHT22;20984;43.508;1.504;2023-02-04T14:53:24;9.80;99.90
34766;DHT22;20984;43.508;1.504;2023-02-04T14:55:49;9.70;99.90
34766;DHT22;20984;43.508;1.504;2023-02-04T14:58:15;9.70;99.90
34766;DHT22;20984;43.508;1.504;2023-02-04T15:00:41;9.60;99.90
34766;DHT22;20984;43.508;1.504;2023-02-04T15:03:06;9.60;99.90
34766;DHT22;20984;43.508;1.504;2023-02-04T15:05:32;9.60;99.90
34766;DHT22;20984;43.508;1.504;2023-02-04T15:07:58;9.50;99.90
34766;DHT22;20984;43.508;1.504;2023-02-04T15:10:24;9.50;99.90
34766;DHT22;20984;43.508;1.504;2023-02-04T15:12:50;9.50;99.90
34766;DHT22;20984;43.508;1.504;2023-02-04T15:15:15;9.50;99.90
34766;DHT22;20984;43.508;1.504;2023-02-04T15:17:41;9.50;99.90
34766;DHT22;20984;43.508;1.504;2023-02-04T15:20:07;9.50;99.90
34766;DHT22;20984;43.508;1.504;2023-02-04T15:22:34;9.50;99.90
34766;DHT22;20984;43.508;1.504;2023-02-04T15:24:59;9.40;99.90
34766;DHT22;20984;43.508;1.504;2023-02-04T15:27:25;9.40;99.90
34766;DHT22;20984;43.508;1.504;2023-02-04T15:29:52;9.40;99.90
34766;DHT22;20984;43.508;1.504;2023-02-04T15:32:17;9.40;99.90
34766;DHT22;20984;43.508;1.504;2023-02-04T15:34:43;9.30;99.90
34766;DHT22;20984;43.508;1.504;2023-02-04T15:37:09;9.40;99.90
34766;DHT22;20984;43.508;1.504;2023-02-04T15:39:35;9.30;99.90
34766;DHT22;20984;43.508;1.504;2023-02-04T15:42:01;9.20;99.90
34766;DHT22;20984;43.508;1.504;2023-02-04T15:44:27;9.20;99.90
34766;DHT22;20984;43.508;1.504;2023-02-04T15:46:52;9.10;99.90
34766;DHT22;20984;43.508;1.504;2023-02-04T15:49:19;9.10;99.90
34766;DHT22;20984;43.508;1.504;2023-02-04T15:51:45;9.10;99.90
34766;DHT22;20984;43.508;1.504;2023-02-04T15:54:11;9.00;99.90
34766;DHT22;20984;43.508;1.504;2023-02-04T15:56:36;9.00;99.90
34766;DHT22;20984;43.508;1.504;2023-02-04T15:59:03;9.00;99.90